x

Buzzards Bay, Ma (buzm3) Weather Station

5:00 - Thu 21st Sep 2017 All times are EDT. -4 hours from GMT.

  • Wind
    46mph, 54mph gusts
  • Air Temp 67°f
  • Sea Pressure 1011.3mb
  • Buzzards Bay, Ma
  • Buzzards Bay, Ma

More Historic Weather Station data

Upgrade to MSW Pro to gain access to the past 30 days of data for over 8000 Wavebouys and Weather Stations around the globe.

Join

Comparision Forecast

View Surf forecast
   
jeu. 09/21 5:00 46 54 mph 1011.3mb 67f
4:00 41 48 mph 1011.1mb 67f
3:00 39 43 mph 1011.2mb 67f
2:00 40 49 mph 1011.2mb 67f
1:00 43 46 mph 1011.3mb 66f
12:00 40 45 mph 1011.8mb 66f
11:00 38 43 mph 1012mb 66f
10:00 39 41 mph 1011.6mb 67f
9:00 41 47 mph 1010.8mb 67f
8:00 37 40 mph 1010.4mb 67f
7:00 33 37 mph 1010.1mb 67f
6:00 33 38 mph 1009.2mb 68f
5:00 38 43 mph 1008.5mb 68f
4:00 39 46 mph 1007.6mb 69f
3:00 34 38 mph 1007.6mb 69f
2:00 39 45 mph 1007.6mb 70f
1:00 33 36 mph 1008.2mb 69f
12:00 37 46 mph 1007.8mb 70f
mer. 09/20 11:00 34 41 mph 1007.9mb 70f
10:00 34 39 mph 1007.9mb 69f
9:00 34 40 mph 1007.8mb 69f
8:00 36 40 mph 1007.9mb 68f
7:00 34 39 mph 1007.6mb 67f
6:00 32 37 mph 1007.3mb 67f
5:00 34 39 mph 1006.9mb 67f
4:00 36 40 mph 1006.4mb 67f
3:00 31 32 mph 1006.7mb 66f
2:00 33 38 mph 1006.4mb 66f
1:00 31 37 mph 1006.2mb 67f
12:00 31 37 mph 1006.6mb 66f
11:00 33 37 mph 1006.7mb 66f
10:00 32 34 mph 1007.3mb 66f
9:00 36 39 mph 1007.3mb 65f
8:00 33 38 mph 1007.1mb 65f
7:00 31 34 mph 1007.3mb 66f
6:00 31 37 mph 1007.3mb 65f
5:00 31 37 mph 1007.5mb 66f
4:00 31 34 mph 1007.3mb 66f
3:00 32 37 mph 1008.2mb 67f
2:00 31 33 mph 1008.9mb 66f
1:00 32 34 mph 1009.8mb 67f
12:00 28 30 mph 1010.5mb 66f
mar. 09/19 11:00 30 32 mph 1010.6mb 67f
10:00 30 32 mph 1011.1mb 66f
9:00 30 32 mph 1011.6mb 67f
8:00 30 33 mph 1011.5mb 67f
7:00 30 34 mph 1011.5mb 67f
6:00 31 33 mph 1012mb 66f
5:00 29 32 mph 1012.5mb 66f
4:00 31 33 mph 1012.9mb 65f
3:00 33 36 mph 1012.9mb 66f
2:00 31 34 mph 1013.5mb 66f
1:00 32 34 mph 1014.8mb 65f
12:00 26 29 mph 1016.1mb 66f
11:00 28 30 mph 1016.6mb 66f
10:00 23 25 mph 1017.5mb 65f
9:00 25 28 mph 1017mb 66f
8:00 25 30 mph 1017.1mb 66f
7:00 26 29 mph 1017.3mb 65f
6:00 24 25 mph 1017.7mb 66f
5:00 25 28 mph 1017.5mb 65f
4:00 24 26 mph 1018.2mb 65f
3:00 23 25 mph 1018.5mb 66f
2:00 25 26 mph 1018.4mb 66f
1:00 23 25 mph 1019.2mb 66f
12:00 23 25 mph 1019.3mb 66f
lun. 09/18 11:00 22 24 mph 1019.8mb 66f
10:00 21 22 mph 1020.1mb 66f
9:00 18 21 mph 1020.4mb 67f
8:00 17 18 mph 1020.3mb 67f
7:00 16 17 mph 1019.7mb 67f
6:00 18 20 mph 1019.6mb 67f
5:00 15 16 mph 1020mb 67f
4:00 14 15 mph 1020mb 67f
3:00 14 15 mph 1020.4mb 68f
2:00 11 13 mph 1020.6mb 67f
1:00 14 15 mph 1021mb 67f
12:00 13 14 mph 1021.4mb 67f
11:00 15 16 mph 1021.1mb 67f
10:00 11 13 mph 1021.2mb 66f
9:00 14 14 mph 1021mb 66f
8:00 10 11 mph 1021mb 66f
7:00 11 11 mph 1021mb 66f
6:00 8 9 mph 1020.7mb 66f
5:00 8 8 mph 1020.6mb 66f
4:00 8 8 mph 1020.5mb 66f
3:00 6 7 mph 1020.5mb 66f
2:00 8 8 mph 1020.9mb 65f
1:00 5 5 mph 1021.3mb 66f
12:00 5 6 mph 1021mb 66f
dim. 09/17 11:00 6 6 mph 1021.3mb 65f